sensor_id;sensor_type;location;lat;lon;timestamp;temperature;humidity
4811;DHT22;2419;51.276;6.472;2023-03-03T00:01:49;1.70;99.90
4811;DHT22;2419;51.276;6.472;2023-03-03T00:04:17;1.80;99.90
4811;DHT22;2419;51.276;6.472;2023-03-03T00:06:45;1.80;99.90
4811;DHT22;2419;51.276;6.472;2023-03-03T00:09:13;1.90;99.90
4811;DHT22;2419;51.276;6.472;2023-03-03T00:11:42;1.90;99.90
4811;DHT22;2419;51.276;6.472;2023-03-03T00:14:21;1.90;99.90
4811;DHT22;2419;51.276;6.472;2023-03-03T00:16:50;1.90;99.90
4811;DHT22;2419;51.276;6.472;2023-03-03T00:19:19;1.90;99.90
4811;DHT22;2419;51.276;6.472;2023-03-03T00:21:49;1.90;99.90
4811;DHT22;2419;51.276;6.472;2023-03-03T00:24:21;2.00;99.90
4811;DHT22;2419;51.276;6.472;2023-03-03T00:26:50;1.90;99.90
4811;DHT22;2419;51.276;6.472;2023-03-03T00:29:30;1.90;99.90
4811;DHT22;2419;51.276;6.472;2023-03-03T00:32:17;1.90;99.90
4811;DHT22;2419;51.276;6.472;2023-03-03T00:34:48;2.00;99.90
4811;DHT22;2419;51.276;6.472;2023-03-03T00:37:30;1.90;99.90
4811;DHT22;2419;51.276;6.472;2023-03-03T00:40:12;1.90;99.90
4811;DHT22;2419;51.276;6.472;2023-03-03T00:42:45;2.00;99.90
4811;DHT22;2419;51.276;6.472;2023-03-03T00:45:28;2.00;99.90
4811;DHT22;2419;51.276;6.472;2023-03-03T00:47:57;2.00;99.90
4811;DHT22;2419;51.276;6.472;2023-03-03T00:50:31;2.00;99.90
4811;DHT22;2419;51.276;6.472;2023-03-03T00:53:05;2.00;99.90
4811;DHT22;2419;51.276;6.472;2023-03-03T00:55:34;2.10;99.90
4811;DHT22;2419;51.276;6.472;2023-03-03T00:58:03;2.00;99.90
4811;DHT22;2419;51.276;6.472;2023-03-03T01:00:38;2.00;99.90
4811;DHT22;2419;51.276;6.472;2023-03-03T01:03:11;2.00;99.90
4811;DHT22;2419;51.276;6.472;2023-03-03T01:05:40;2.00;99.90
4811;DHT22;2419;51.276;6.472;2023-03-03T01:08:09;2.00;99.90
4811;DHT22;2419;51.276;6.472;2023-03-03T01:10:41;2.00;99.90
4811;DHT22;2419;51.276;6.472;2023-03-03T01:13:10;2.00;99.90
4811;DHT22;2419;51.276;6.472;2023-03-03T01:15:40;2.00;99.90
4811;DHT22;2419;51.276;6.472;2023-03-03T01:18:08;2.00;99.90
4811;DHT22;2419;51.276;6.472;2023-03-03T01:20:37;2.00;99.90
4811;DHT22;2419;51.276;6.472;2023-03-03T01:23:05;2.00;99.90
4811;DHT22;2419;51.276;6.472;2023-03-03T01:25:34;2.00;99.90
4811;DHT22;2419;51.276;6.472;2023-03-03T01:28:04;2.00;99.90
4811;DHT22;2419;51.276;6.472;2023-03-03T01:30:32;2.00;99.90
4811;DHT22;2419;51.276;6.472;2023-03-03T01:33:03;1.90;99.90
4811;DHT22;2419;51.276;6.472;2023-03-03T01:35:31;1.90;99.90
4811;DHT22;2419;51.276;6.472;2023-03-03T01:38:02;1.90;99.90
4811;DHT22;2419;51.276;6.472;2023-03-03T01:40:30;2.00;99.90
4811;DHT22;2419;51.276;6.472;2023-03-03T01:42:59;2.00;99.90
4811;DHT22;2419;51.276;6.472;2023-03-03T01:45:29;2.10;99.90
4811;DHT22;2419;51.276;6.472;2023-03-03T01:48:04;2.10;99.90
4811;DHT22;2419;51.276;6.472;2023-03-03T01:50:39;2.10;99.90
4811;DHT22;2419;51.276;6.472;2023-03-03T01:53:12;2.10;99.90
4811;DHT22;2419;51.276;6.472;2023-03-03T01:55:43;2.00;99.90
4811;DHT22;2419;51.276;6.472;2023-03-03T01:58:16;2.10;99.90
4811;DHT22;2419;51.276;6.472;2023-03-03T02:00:48;2.00;99.90
4811;DHT22;2419;51.276;6.472;2023-03-03T02:03:20;2.00;99.90
4811;DHT22;2419;51.276;6.472;2023-03-03T02:05:51;1.90;99.90
4811;DHT22;2419;51.276;6.472;2023-03-03T02:08:26;2.00;99.90
4811;DHT22;2419;51.276;6.472;2023-03-03T02:10:56;1.90;99.90
4811;DHT22;2419;51.276;6.472;2023-03-03T02:13:24;2.00;99.90
4811;DHT22;2419;51.276;6.472;2023-03-03T02:15:54;2.10;99.90
4811;DHT22;2419;51.276;6.472;2023-03-03T02:18:24;2.00;99.90
4811;DHT22;2419;51.276;6.472;2023-03-03T02:20:56;2.00;99.90
4811;DHT22;2419;51.276;6.472;2023-03-03T02:23:29;2.00;99.90
4811;DHT22;2419;51.276;6.472;2023-03-03T02:26:20;1.90;99.90
4811;DHT22;2419;51.276;6.472;2023-03-03T02:28:54;1.90;99.90
4811;DHT22;2419;51.276;6.472;2023-03-03T02:31:24;1.90;99.90
4811;DHT22;2419;51.276;6.472;2023-03-03T02:33:54;1.70;99.90
4811;DHT22;2419;51.276;6.472;2023-03-03T02:36:23;1.80;99.90
4811;DHT22;2419;51.276;6.472;2023-03-03T02:38:59;1.80;99.90
4811;DHT22;2419;51.276;6.472;2023-03-03T02:41:34;1.90;99.90
4811;DHT22;2419;51.276;6.472;2023-03-03T02:44:07;1.90;99.90
4811;DHT22;2419;51.276;6.472;2023-03-03T02:46:37;1.80;99.90
4811;DHT22;2419;51.276;6.472;2023-03-03T02:49:08;1.80;99.90
4811;DHT22;2419;51.276;6.472;2023-03-03T02:51:37;1.90;99.90
4811;DHT22;2419;51.276;6.472;2023-03-03T02:54:06;1.90;99.90
4811;DHT22;2419;51.276;6.472;2023-03-03T02:56:36;1.90;99.90
4811;DHT22;2419;51.276;6.472;2023-03-03T02:59:05;1.90;99.90
4811;DHT22;2419;51.276;6.472;2023-03-03T03:01:39;2.00;99.90
4811;DHT22;2419;51.276;6.472;2023-03-03T03:04:13;2.00;99.90
4811;DHT22;2419;51.276;6.472;2023-03-03T03:06:44;2.00;99.90
4811;DHT22;2419;51.276;6.472;2023-03-03T03:09:15;1.90;99.90
4811;DHT22;2419;51.276;6.472;2023-03-03T03:11:47;2.00;99.90
4811;DHT22;2419;51.276;6.472;2023-03-03T03:14:18;1.90;99.90
4811;DHT22;2419;51.276;6.472;2023-03-03T03:16:47;1.90;99.90
4811;DHT22;2419;51.276;6.472;2023-03-03T03:19:15;1.90;99.90
4811;DHT22;2419;51.276;6.472;2023-03-03T03:21:44;1.90;99.90
4811;DHT22;2419;51.276;6.472;2023-03-03T03:24:12;1.90;99.90
4811;DHT22;2419;51.276;6.472;2023-03-03T03:26:47;1.90;99.90
4811;DHT22;2419;51.276;6.472;2023-03-03T03:29:15;1.90;99.90
4811;DHT22;2419;51.276;6.472;2023-03-03T03:31:44;1.80;99.90
4811;DHT22;2419;51.276;6.472;2023-03-03T03:34:12;1.80;99.90
4811;DHT22;2419;51.276;6.472;2023-03-03T03:36:40;1.80;99.90
4811;DHT22;2419;51.276;6.472;2023-03-03T03:39:09;1.80;99.90
4811;DHT22;2419;51.276;6.472;2023-03-03T03:41:43;1.80;99.90
4811;DHT22;2419;51.276;6.472;2023-03-03T03:44:13;1.80;99.90
4811;DHT22;2419;51.276;6.472;2023-03-03T03:46:41;1.80;99.90
4811;DHT22;2419;51.276;6.472;2023-03-03T03:49:10;1.80;99.90
4811;DHT22;2419;51.276;6.472;2023-03-03T03:51:39;1.80;99.90
4811;DHT22;2419;51.276;6.472;2023-03-03T03:54:11;1.80;99.90
4811;DHT22;2419;51.276;6.472;2023-03-03T03:56:40;2.00;99.90
4811;DHT22;2419;51.276;6.472;2023-03-03T03:59:08;1.90;99.90
4811;DHT22;2419;51.276;6.472;2023-03-03T04:01:39;1.90;99.90
4811;DHT22;2419;51.276;6.472;2023-03-03T04:04:07;1.90;99.90
4811;DHT22;2419;51.276;6.472;2023-03-03T04:06:36;1.90;99.90
4811;DHT22;2419;51.276;6.472;2023-03-03T04:09:05;1.80;99.90
4811;DHT22;2419;51.276;6.472;2023-03-03T04:11:33;1.80;99.90
4811;DHT22;2419;51.276;6.472;2023-03-03T04:14:04;1.90;99.90
4811;DHT22;2419;51.276;6.472;2023-03-03T04:16:34;1.80;99.90
4811;DHT22;2419;51.276;6.472;2023-03-03T04:19:04;1.90;99.90
4811;DHT22;2419;51.276;6.472;2023-03-03T04:21:34;1.90;99.90
4811;DHT22;2419;51.276;6.472;2023-03-03T04:24:03;2.00;99.90
4811;DHT22;2419;51.276;6.472;2023-03-03T04:26:32;2.00;99.90
4811;DHT22;2419;51.276;6.472;2023-03-03T04:29:02;2.00;99.90
4811;DHT22;2419;51.276;6.472;2023-03-03T04:31:31;1.80;99.90
4811;DHT22;2419;51.276;6.472;2023-03-03T04:33:59;1.90;99.90
4811;DHT22;2419;51.276;6.472;2023-03-03T04:36:30;2.00;99.90
4811;DHT22;2419;51.276;6.472;2023-03-03T04:38:58;2.00;99.90
4811;DHT22;2419;51.276;6.472;2023-03-03T04:41:26;1.90;99.90
4811;DHT22;2419;51.276;6.472;2023-03-03T04:43:55;1.90;99.90
4811;DHT22;2419;51.276;6.472;2023-03-03T04:46:23;1.90;99.90
4811;DHT22;2419;51.276;6.472;2023-03-03T04:48:51;1.90;99.90
4811;DHT22;2419;51.276;6.472;2023-03-03T04:51:19;1.80;99.90
4811;DHT22;2419;51.276;6.472;2023-03-03T04:53:49;1.80;99.90
4811;DHT22;2419;51.276;6.472;2023-03-03T04:56:18;1.70;99.90
4811;DHT22;2419;51.276;6.472;2023-03-03T04:58:48;1.70;99.90
4811;DHT22;2419;51.276;6.472;2023-03-03T05:01:16;1.70;99.90
4811;DHT22;2419;51.276;6.472;2023-03-03T05:03:45;1.80;99.90
4811;DHT22;2419;51.276;6.472;2023-03-03T05:06:14;1.80;99.90
4811;DHT22;2419;51.276;6.472;2023-03-03T05:08:44;1.80;99.90
4811;DHT22;2419;51.276;6.472;2023-03-03T05:11:14;1.80;99.90
4811;DHT22;2419;51.276;6.472;2023-03-03T05:13:42;1.70;99.90
4811;DHT22;2419;51.276;6.472;2023-03-03T05:16:11;1.70;99.90
4811;DHT22;2419;51.276;6.472;2023-03-03T05:18:40;1.80;99.90
4811;DHT22;2419;51.276;6.472;2023-03-03T05:21:08;1.70;99.90
4811;DHT22;2419;51.276;6.472;2023-03-03T05:23:36;1.60;99.90
4811;DHT22;2419;51.276;6.472;2023-03-03T05:26:05;1.70;99.90
4811;DHT22;2419;51.276;6.472;2023-03-03T05:28:35;1.60;99.90
4811;DHT22;2419;51.276;6.472;2023-03-03T05:31:03;1.60;99.90
4811;DHT22;2419;51.276;6.472;2023-03-03T05:33:31;1.60;99.90
4811;DHT22;2419;51.276;6.472;2023-03-03T05:35:59;1.60;99.90
4811;DHT22;2419;51.276;6.472;2023-03-03T05:38:27;1.60;99.90
4811;DHT22;2419;51.276;6.472;2023-03-03T05:40:55;1.60;99.90
4811;DHT22;2419;51.276;6.472;2023-03-03T05:43:24;1.60;99.90
4811;DHT22;2419;51.276;6.472;2023-03-03T05:45:55;1.60;99.90
4811;DHT22;2419;51.276;6.472;2023-03-03T05:48:23;1.60;99.90
4811;DHT22;2419;51.276;6.472;2023-03-03T05:50:51;1.50;99.90
4811;DHT22;2419;51.276;6.472;2023-03-03T05:53:19;1.50;99.90
4811;DHT22;2419;51.276;6.472;2023-03-03T05:55:47;1.60;99.90
4811;DHT22;2419;51.276;6.472;2023-03-03T05:58:15;1.60;99.90
4811;DHT22;2419;51.276;6.472;2023-03-03T06:00:44;1.60;99.90
4811;DHT22;2419;51.276;6.472;2023-03-03T06:03:14;1.60;99.90
4811;DHT22;2419;51.276;6.472;2023-03-03T06:05:43;1.60;99.90
4811;DHT22;2419;51.276;6.472;2023-03-03T06:08:11;1.60;99.90
4811;DHT22;2419;51.276;6.472;2023-03-03T06:10:39;1.60;99.90
4811;DHT22;2419;51.276;6.472;2023-03-03T06:13:09;1.60;99.90
4811;DHT22;2419;51.276;6.472;2023-03-03T06:15:37;1.60;99.90
4811;DHT22;2419;51.276;6.472;2023-03-03T06:18:05;1.60;99.90
4811;DHT22;2419;51.276;6.472;2023-03-03T06:20:35;1.60;99.90
4811;DHT22;2419;51.276;6.472;2023-03-03T06:23:04;1.50;99.90
4811;DHT22;2419;51.276;6.472;2023-03-03T06:25:32;1.40;99.90
4811;DHT22;2419;51.276;6.472;2023-03-03T06:28:01;1.40;99.90
4811;DHT22;2419;51.276;6.472;2023-03-03T06:30:29;1.40;99.90
4811;DHT22;2419;51.276;6.472;2023-03-03T06:32:58;1.50;99.90
4811;DHT22;2419;51.276;6.472;2023-03-03T06:35:27;1.50;99.90
4811;DHT22;2419;51.276;6.472;2023-03-03T06:37:56;1.50;99.90
4811;DHT22;2419;51.276;6.472;2023-03-03T06:40:25;1.60;99.90
4811;DHT22;2419;51.276;6.472;2023-03-03T06:42:53;1.60;99.90
4811;DHT22;2419;51.276;6.472;2023-03-03T06:45:21;1.50;99.90
4811;DHT22;2419;51.276;6.472;2023-03-03T06:47:49;1.60;99.90
4811;DHT22;2419;51.276;6.472;2023-03-03T06:50:19;1.60;99.90
4811;DHT22;2419;51.276;6.472;2023-03-03T06:52:47;1.60;99.90
4811;DHT22;2419;51.276;6.472;2023-03-03T06:55:22;1.70;99.90
4811;DHT22;2419;51.276;6.472;2023-03-03T06:57:50;1.60;99.90
4811;DHT22;2419;51.276;6.472;2023-03-03T07:00:23;1.70;99.90
4811;DHT22;2419;51.276;6.472;2023-03-03T07:02:58;1.70;99.90
4811;DHT22;2419;51.276;6.472;2023-03-03T07:05:28;1.70;99.90
4811;DHT22;2419;51.276;6.472;2023-03-03T07:07:56;1.70;99.90
4811;DHT22;2419;51.276;6.472;2023-03-03T07:10:27;1.80;99.90
4811;DHT22;2419;51.276;6.472;2023-03-03T07:13:00;1.80;99.90
4811;DHT22;2419;51.276;6.472;2023-03-03T07:15:33;1.80;99.90
4811;DHT22;2419;51.276;6.472;2023-03-03T07:18:02;1.80;99.90
4811;DHT22;2419;51.276;6.472;2023-03-03T07:20:39;1.80;99.90
4811;DHT22;2419;51.276;6.472;2023-03-03T07:23:17;1.90;99.90
4811;DHT22;2419;51.276;6.472;2023-03-03T07:25:49;1.90;99.90
4811;DHT22;2419;51.276;6.472;2023-03-03T07:28:22;1.90;99.90
4811;DHT22;2419;51.276;6.472;2023-03-03T07:30:51;2.00;99.90
4811;DHT22;2419;51.276;6.472;2023-03-03T07:33:25;2.00;99.90
4811;DHT22;2419;51.276;6.472;2023-03-03T07:35:54;2.00;99.90
4811;DHT22;2419;51.276;6.472;2023-03-03T07:38:28;2.10;99.90
4811;DHT22;2419;51.276;6.472;2023-03-03T07:41:03;2.10;99.90
4811;DHT22;2419;51.276;6.472;2023-03-03T07:43:36;2.10;99.90
4811;DHT22;2419;51.276;6.472;2023-03-03T07:46:27;2.10;99.90
4811;DHT22;2419;51.276;6.472;2023-03-03T07:48:57;2.10;99.90
4811;DHT22;2419;51.276;6.472;2023-03-03T07:51:27;2.10;99.90
4811;DHT22;2419;51.276;6.472;2023-03-03T07:54:10;2.20;99.90
4811;DHT22;2419;51.276;6.472;2023-03-03T07:56:43;2.20;99.90
4811;DHT22;2419;51.276;6.472;2023-03-03T07:59:20;2.30;99.90
4811;DHT22;2419;51.276;6.472;2023-03-03T08:01:51;2.30;99.90
4811;DHT22;2419;51.276;6.472;2023-03-03T08:04:23;2.20;99.90
4811;DHT22;2419;51.276;6.472;2023-03-03T08:06:54;2.30;99.90
4811;DHT22;2419;51.276;6.472;2023-03-03T08:09:43;2.30;99.90
4811;DHT22;2419;51.276;6.472;2023-03-03T08:15:20;2.30;99.90
4811;DHT22;2419;51.276;6.472;2023-03-03T08:17:51;2.20;99.90
4811;DHT22;2419;51.276;6.472;2023-03-03T08:20:50;2.40;99.90
4811;DHT22;2419;51.276;6.472;2023-03-03T08:23:19;2.30;99.90
4811;DHT22;2419;51.276;6.472;2023-03-03T08:25:49;2.30;99.90
4811;DHT22;2419;51.276;6.472;2023-03-03T08:28:19;2.40;99.90
4811;DHT22;2419;51.276;6.472;2023-03-03T08:30:48;2.50;99.90
4811;DHT22;2419;51.276;6.472;2023-03-03T08:33:20;2.40;99.90
4811;DHT22;2419;51.276;6.472;2023-03-03T08:35:48;2.40;99.90
4811;DHT22;2419;51.276;6.472;2023-03-03T08:38:18;2.50;99.90
4811;DHT22;2419;51.276;6.472;2023-03-03T08:40:47;2.50;99.90
4811;DHT22;2419;51.276;6.472;2023-03-03T08:43:15;2.50;99.90
4811;DHT22;2419;51.276;6.472;2023-03-03T08:45:49;2.60;99.90
4811;DHT22;2419;51.276;6.472;2023-03-03T08:48:18;2.60;99.90
4811;DHT22;2419;51.276;6.472;2023-03-03T08:50:46;2.70;99.90
4811;DHT22;2419;51.276;6.472;2023-03-03T08:53:15;2.60;99.90
4811;DHT22;2419;51.276;6.472;2023-03-03T08:55:43;2.50;99.90
4811;DHT22;2419;51.276;6.472;2023-03-03T08:58:12;2.60;99.90
4811;DHT22;2419;51.276;6.472;2023-03-03T09:00:40;2.60;99.90
4811;DHT22;2419;51.276;6.472;2023-03-03T09:03:10;2.60;99.90
4811;DHT22;2419;51.276;6.472;2023-03-03T09:05:39;2.50;99.90
4811;DHT22;2419;51.276;6.472;2023-03-03T09:08:08;2.60;99.90
4811;DHT22;2419;51.276;6.472;2023-03-03T09:10:36;2.70;99.90
4811;DHT22;2419;51.276;6.472;2023-03-03T09:13:11;2.70;99.90
4811;DHT22;2419;51.276;6.472;2023-03-03T09:15:40;2.70;99.90
4811;DHT22;2419;51.276;6.472;2023-03-03T09:18:16;2.80;99.90
4811;DHT22;2419;51.276;6.472;2023-03-03T09:20:46;2.70;99.90
4811;DHT22;2419;51.276;6.472;2023-03-03T09:23:33;2.80;99.90
4811;DHT22;2419;51.276;6.472;2023-03-03T09:26:20;2.90;99.90
4811;DHT22;2419;51.276;6.472;2023-03-03T09:28:49;2.90;99.90
4811;DHT22;2419;51.276;6.472;2023-03-03T09:31:23;3.00;99.90
4811;DHT22;2419;51.276;6.472;2023-03-03T09:33:53;2.90;99.90
4811;DHT22;2419;51.276;6.472;2023-03-03T09:36:25;3.00;99.90
4811;DHT22;2419;51.276;6.472;2023-03-03T09:38:55;3.00;99.90
4811;DHT22;2419;51.276;6.472;2023-03-03T09:42:07;3.00;99.90
4811;DHT22;2419;51.276;6.472;2023-03-03T09:47:46;3.00;99.90
4811;DHT22;2419;51.276;6.472;2023-03-03T09:50:31;3.10;99.90
4811;DHT22;2419;51.276;6.472;2023-03-03T09:53:11;3.10;99.90
4811;DHT22;2419;51.276;6.472;2023-03-03T09:55:49;3.10;99.90
4811;DHT22;2419;51.276;6.472;2023-03-03T09:58:28;3.30;99.90
4811;DHT22;2419;51.276;6.472;2023-03-03T10:01:10;3.20;99.90
4811;DHT22;2419;51.276;6.472;2023-03-03T10:04:05;3.10;99.90
4811;DHT22;2419;51.276;6.472;2023-03-03T10:06:43;3.10;99.90
4811;DHT22;2419;51.276;6.472;2023-03-03T10:09:47;3.20;99.90
4811;DHT22;2419;51.276;6.472;2023-03-03T10:12:27;3.20;99.90
4811;DHT22;2419;51.276;6.472;2023-03-03T10:15:15;3.20;99.90
4811;DHT22;2419;51.276;6.472;2023-03-03T10:17:49;3.20;99.90
4811;DHT22;2419;51.276;6.472;2023-03-03T10:20:46;3.20;99.90
4811;DHT22;2419;51.276;6.472;2023-03-03T10:23:30;3.20;99.90
4811;DHT22;2419;51.276;6.472;2023-03-03T10:26:08;3.30;99.90
4811;DHT22;2419;51.276;6.472;2023-03-03T10:28:57;3.30;99.90
4811;DHT22;2419;51.276;6.472;2023-03-03T10:31:40;3.50;99.90
4811;DHT22;2419;51.276;6.472;2023-03-03T10:34:21;3.50;99.90
4811;DHT22;2419;51.276;6.472;2023-03-03T10:36:55;3.50;99.90
4811;DHT22;2419;51.276;6.472;2023-03-03T10:39:42;3.60;99.90
4811;DHT22;2419;51.276;6.472;2023-03-03T10:42:23;3.60;99.90
4811;DHT22;2419;51.276;6.472;2023-03-03T10:45:05;3.40;99.90
4811;DHT22;2419;51.276;6.472;2023-03-03T10:47:52;3.40;99.90
4811;DHT22;2419;51.276;6.472;2023-03-03T10:50:26;3.50;99.90
4811;DHT22;2419;51.276;6.472;2023-03-03T10:53:10;3.60;99.90
4811;DHT22;2419;51.276;6.472;2023-03-03T10:55:47;3.50;99.90
4811;DHT22;2419;51.276;6.472;2023-03-03T10:58:35;3.50;99.90
4811;DHT22;2419;51.276;6.472;2023-03-03T11:01:13;3.50;99.90
4811;DHT22;2419;51.276;6.472;2023-03-03T11:03:56;3.50;99.90
4811;DHT22;2419;51.276;6.472;2023-03-03T11:06:36;3.50;99.90
4811;DHT22;2419;51.276;6.472;2023-03-03T11:09:27;3.60;99.90
4811;DHT22;2419;51.276;6.472;2023-03-03T11:12:06;3.70;99.90
4811;DHT22;2419;51.276;6.472;2023-03-03T11:14:44;3.80;99.90
4811;DHT22;2419;51.276;6.472;2023-03-03T11:17:19;4.00;99.90
4811;DHT22;2419;51.276;6.472;2023-03-03T11:19:58;4.00;99.90
4811;DHT22;2419;51.276;6.472;2023-03-03T11:22:33;4.00;99.90
4811;DHT22;2419;51.276;6.472;2023-03-03T11:25:22;3.90;99.90
4811;DHT22;2419;51.276;6.472;2023-03-03T11:28:14;3.90;99.90
4811;DHT22;2419;51.276;6.472;2023-03-03T11:30:55;4.00;99.90
4811;DHT22;2419;51.276;6.472;2023-03-03T11:33:32;4.00;99.90
4811;DHT22;2419;51.276;6.472;2023-03-03T11:36:08;4.10;99.90
4811;DHT22;2419;51.276;6.472;2023-03-03T11:38:46;4.20;99.90
4811;DHT22;2419;51.276;6.472;2023-03-03T11:44:17;4.50;99.90
4811;DHT22;2419;51.276;6.472;2023-03-03T11:46:50;4.40;99.90
4811;DHT22;2419;51.276;6.472;2023-03-03T11:49:22;4.10;99.90
4811;DHT22;2419;51.276;6.472;2023-03-03T11:51:58;4.20;99.90
4811;DHT22;2419;51.276;6.472;2023-03-03T11:54:33;4.40;99.90
4811;DHT22;2419;51.276;6.472;2023-03-03T11:57:13;4.40;99.90
4811;DHT22;2419;51.276;6.472;2023-03-03T11:59:49;4.60;99.90
4811;DHT22;2419;51.276;6.472;2023-03-03T12:02:29;4.80;99.90
4811;DHT22;2419;51.276;6.472;2023-03-03T12:05:05;4.60;99.90
4811;DHT22;2419;51.276;6.472;2023-03-03T12:07:42;4.60;99.90
4811;DHT22;2419;51.276;6.472;2023-03-03T12:10:21;4.60;99.90
4811;DHT22;2419;51.276;6.472;2023-03-03T12:12:58;4.60;99.90
4811;DHT22;2419;51.276;6.472;2023-03-03T12:15:35;4.80;99.90
4811;DHT22;2419;51.276;6.472;2023-03-03T12:18:33;4.90;99.90
4811;DHT22;2419;51.276;6.472;2023-03-03T12:21:17;4.80;99.90
4811;DHT22;2419;51.276;6.472;2023-03-03T12:23:59;4.80;99.90
4811;DHT22;2419;51.276;6.472;2023-03-03T12:26:39;4.80;99.90
4811;DHT22;2419;51.276;6.472;2023-03-03T12:29:18;4.90;99.90
4811;DHT22;2419;51.276;6.472;2023-03-03T12:31:57;4.80;99.90
4811;DHT22;2419;51.276;6.472;2023-03-03T12:34:36;4.90;99.90
4811;DHT22;2419;51.276;6.472;2023-03-03T12:37:40;5.00;99.90
4811;DHT22;2419;51.276;6.472;2023-03-03T12:40:16;5.00;99.90
4811;DHT22;2419;51.276;6.472;2023-03-03T12:42:59;4.90;99.90
4811;DHT22;2419;51.276;6.472;2023-03-03T12:45:37;4.80;99.90
4811;DHT22;2419;51.276;6.472;2023-03-03T12:48:15;5.10;99.90
4811;DHT22;2419;51.276;6.472;2023-03-03T12:50:53;5.30;99.90
4811;DHT22;2419;51.276;6.472;2023-03-03T12:53:36;5.40;99.90
4811;DHT22;2419;51.276;6.472;2023-03-03T12:56:07;5.10;99.90
4811;DHT22;2419;51.276;6.472;2023-03-03T12:58:42;5.40;99.90
4811;DHT22;2419;51.276;6.472;2023-03-03T13:01:21;5.40;99.90
4811;DHT22;2419;51.276;6.472;2023-03-03T13:04:02;5.30;99.90
4811;DHT22;2419;51.276;6.472;2023-03-03T13:06:37;5.20;99.90
4811;DHT22;2419;51.276;6.472;2023-03-03T13:09:22;5.20;99.90
4811;DHT22;2419;51.276;6.472;2023-03-03T13:12:16;5.30;99.90
4811;DHT22;2419;51.276;6.472;2023-03-03T13:14:52;5.50;99.90
4811;DHT22;2419;51.276;6.472;2023-03-03T13:17:27;5.40;99.90
4811;DHT22;2419;51.276;6.472;2023-03-03T13:19:59;5.30;99.90
4811;DHT22;2419;51.276;6.472;2023-03-03T13:22:36;5.50;99.90
4811;DHT22;2419;51.276;6.472;2023-03-03T13:28:06;6.00;99.90
4811;DHT22;2419;51.276;6.472;2023-03-03T13:30:49;6.00;99.90
4811;DHT22;2419;51.276;6.472;2023-03-03T13:33:25;6.00;99.90
4811;DHT22;2419;51.276;6.472;2023-03-03T13:35:57;6.20;99.90
4811;DHT22;2419;51.276;6.472;2023-03-03T13:38:29;6.20;99.90
4811;DHT22;2419;51.276;6.472;2023-03-03T13:41:04;6.10;99.90
4811;DHT22;2419;51.276;6.472;2023-03-03T13:43:40;6.00;99.90
4811;DHT22;2419;51.276;6.472;2023-03-03T13:46:15;6.10;99.90
4811;DHT22;2419;51.276;6.472;2023-03-03T13:49:21;6.20;99.90
4811;DHT22;2419;51.276;6.472;2023-03-03T13:52:00;6.10;99.90
4811;DHT22;2419;51.276;6.472;2023-03-03T13:54:48;5.90;99.90
4811;DHT22;2419;51.276;6.472;2023-03-03T13:57:24;6.40;99.90
4811;DHT22;2419;51.276;6.472;2023-03-03T14:00:03;6.50;99.90
4811;DHT22;2419;51.276;6.472;2023-03-03T14:02:49;6.30;99.90
4811;DHT22;2419;51.276;6.472;2023-03-03T14:05:25;6.40;99.90
4811;DHT22;2419;51.276;6.472;2023-03-03T14:08:04;6.60;99.90
4811;DHT22;2419;51.276;6.472;2023-03-03T14:10:36;6.50;99.90
4811;DHT22;2419;51.276;6.472;2023-03-03T14:13:11;6.80;99.90
4811;DHT22;2419;51.276;6.472;2023-03-03T14:15:46;7.00;99.90
4811;DHT22;2419;51.276;6.472;2023-03-03T14:18:23;7.10;99.90
4811;DHT22;2419;51.276;6.472;2023-03-03T14:20:55;7.20;99.90
4811;DHT22;2419;51.276;6.472;2023-03-03T14:23:31;7.00;99.90
4811;DHT22;2419;51.276;6.472;2023-03-03T14:26:06;7.10;99.90
4811;DHT22;2419;51.276;6.472;2023-03-03T14:28:39;6.80;99.90
4811;DHT22;2419;51.276;6.472;2023-03-03T14:31:19;6.80;99.90
4811;DHT22;2419;51.276;6.472;2023-03-03T14:33:59;7.10;99.90
4811;DHT22;2419;51.276;6.472;2023-03-03T14:36:30;7.00;99.90
4811;DHT22;2419;51.276;6.472;2023-03-03T14:39:00;7.10;99.90
4811;DHT22;2419;51.276;6.472;2023-03-03T14:41:38;6.80;99.90
4811;DHT22;2419;51.276;6.472;2023-03-03T14:44:34;6.80;99.90
4811;DHT22;2419;51.276;6.472;2023-03-03T14:47:12;6.80;99.90
4811;DHT22;2419;51.276;6.472;2023-03-03T14:49:43;6.90;99.90
4811;DHT22;2419;51.276;6.472;2023-03-03T14:52:21;6.70;99.90
4811;DHT22;2419;51.276;6.472;2023-03-03T14:54:52;6.70;99.90
4811;DHT22;2419;51.276;6.472;2023-03-03T14:57:22;6.80;99.90
4811;DHT22;2419;51.276;6.472;2023-03-03T15:00:26;6.80;99.90
4811;DHT22;2419;51.276;6.472;2023-03-03T15:03:01;6.80;99.90
4811;DHT22;2419;51.276;6.472;2023-03-03T15:05:32;6.90;99.90
4811;DHT22;2419;51.276;6.472;2023-03-03T15:08:08;6.90;99.90
4811;DHT22;2419;51.276;6.472;2023-03-03T15:10:39;6.80;99.90
4811;DHT22;2419;51.276;6.472;2023-03-03T15:13:32;6.60;99.90
4811;DHT22;2419;51.276;6.472;2023-03-03T15:16:09;6.50;99.90
4811;DHT22;2419;51.276;6.472;2023-03-03T15:21:58;6.60;99.90
4811;DHT22;2419;51.276;6.472;2023-03-03T15:24:33;6.50;99.90
4811;DHT22;2419;51.276;6.472;2023-03-03T15:27:11;6.40;99.90
4811;DHT22;2419;51.276;6.472;2023-03-03T15:29:46;6.50;99.90
4811;DHT22;2419;51.276;6.472;2023-03-03T15:32:24;6.40;99.90
4811;DHT22;2419;51.276;6.472;2023-03-03T15:35:02;6.30;99.90
4811;DHT22;2419;51.276;6.472;2023-03-03T15:37:40;6.30;99.90
4811;DHT22;2419;51.276;6.472;2023-03-03T15:40:18;6.50;99.90
4811;DHT22;2419;51.276;6.472;2023-03-03T15:42:56;6.40;99.90
4811;DHT22;2419;51.276;6.472;2023-03-03T15:45:28;6.40;99.90
4811;DHT22;2419;51.276;6.472;2023-03-03T15:48:09;6.50;99.90
4811;DHT22;2419;51.276;6.472;2023-03-03T15:50:46;6.60;99.90
4811;DHT22;2419;51.276;6.472;2023-03-03T15:53:28;6.60;99.90
4811;DHT22;2419;51.276;6.472;2023-03-03T15:56:12;6.50;99.90
4811;DHT22;2419;51.276;6.472;2023-03-03T16:01:53;6.50;99.90
4811;DHT22;2419;51.276;6.472;2023-03-03T16:04:26;6.50;99.90
4811;DHT22;2419;51.276;6.472;2023-03-03T16:07:01;6.50;99.90
4811;DHT22;2419;51.276;6.472;2023-03-03T16:09:45;6.40;99.90
4811;DHT22;2419;51.276;6.472;2023-03-03T16:12:24;6.40;99.90
4811;DHT22;2419;51.276;6.472;2023-03-03T16:15:14;6.40;99.90
4811;DHT22;2419;51.276;6.472;2023-03-03T16:17:53;6.30;99.90
4811;DHT22;2419;51.276;6.472;2023-03-03T16:20:28;6.20;99.90
4811;DHT22;2419;51.276;6.472;2023-03-03T16:23:20;6.10;99.90
4811;DHT22;2419;51.276;6.472;2023-03-03T16:26:12;6.00;99.90
4811;DHT22;2419;51.276;6.472;2023-03-03T16:28:56;5.90;99.90
4811;DHT22;2419;51.276;6.472;2023-03-03T16:31:34;5.90;99.90
4811;DHT22;2419;51.276;6.472;2023-03-03T16:34:10;5.90;99.90
4811;DHT22;2419;51.276;6.472;2023-03-03T16:36:58;5.90;99.90
4811;DHT22;2419;51.276;6.472;2023-03-03T16:39:39;5.80;99.90
4811;DHT22;2419;51.276;6.472;2023-03-03T16:42:18;5.80;99.90
4811;DHT22;2419;51.276;6.472;2023-03-03T16:45:08;5.80;99.90
4811;DHT22;2419;51.276;6.472;2023-03-03T16:47:52;5.70;99.90
4811;DHT22;2419;51.276;6.472;2023-03-03T16:50:26;5.70;99.90
4811;DHT22;2419;51.276;6.472;2023-03-03T16:53:03;5.60;99.90
4811;DHT22;2419;51.276;6.472;2023-03-03T16:55:44;5.50;99.90
4811;DHT22;2419;51.276;6.472;2023-03-03T16:58:24;5.40;99.90
4811;DHT22;2419;51.276;6.472;2023-03-03T17:00:58;5.30;99.90
4811;DHT22;2419;51.276;6.472;2023-03-03T17:03:44;5.20;99.90
4811;DHT22;2419;51.276;6.472;2023-03-03T17:06:20;5.10;99.90
4811;DHT22;2419;51.276;6.472;2023-03-03T17:09:07;5.10;99.90
4811;DHT22;2419;51.276;6.472;2023-03-03T17:12:05;5.10;99.90
4811;DHT22;2419;51.276;6.472;2023-03-03T17:14:53;4.90;99.90
4811;DHT22;2419;51.276;6.472;2023-03-03T17:17:31;4.70;99.90
4811;DHT22;2419;51.276;6.472;2023-03-03T17:20:22;4.60;99.90
4811;DHT22;2419;51.276;6.472;2023-03-03T17:23:02;4.40;99.90
4811;DHT22;2419;51.276;6.472;2023-03-03T17:25:43;4.20;99.90